This demonstration page uses our WeatherBlox Daily Observations layout. Learn more.

Left ArrowRight Arrow

Hourly Observations for April 21, 2015

Temp ( °F °C ) Dew Point ( °F °C ) Humidity (%) Winds ( mph kmh ) Pressure ( in mb ) Visibility ( mi km ) Precip ( " mm )
12:53 am 00:53 Mostly Cloudy 48 8.9 37 2.8 66 66 WSW 6 9 29.79 1009 10 16.0934 0 0
1:53 am 01:53 Mostly Cloudy 47 8.3 38 3.3 71 71 WSW 7 11 29.8 1009 10 16.0934 0 0
2:53 am 02:53 Mostly Cloudy 47 8.3 35 1.7 63 63 WSW 5 7 29.8 1009 10 16.0934 0 0
3:53 am 03:53 Cloudy 47 8.3 34 1.1 61 61 WSW 9 15 29.8 1009 10 16.0934 0 0
4:53 am 04:53 Clear 43 6.1 35 1.7 74 74 SSW 3 6 29.8 1009 10 16.0934 0 0
5:53 am 05:53 Clear 45 7.2 36 2.2 71 71 SW 6 9 29.8 1009 10 16.0934 0 0
6:53 am 06:53 Mostly Sunny 45 7.2 35 1.7 68 68 SW 7 11 29.8 1009 10 16.0934 0 0
7:53 am 07:53 Sunny 48 8.9 33 0.6 56 56 SW 8 13 29.8 1009 10 16.0934 0 0
8:53 am 08:53 Sunny 50 10 33 0.6 52 52 WSW 12 19 29.8 1009 10 16.0934 0 0
9:53 am 09:53 Sunny 54 12.2 34 1.1 47 47 SW 13 20 29.8 1009 10 16.0934 0 0
10:53 am 10:53 Sunny 57 13.9 31 -0.6 37 37 WSW 16 26 29.79 1009 10 16.0934 0 0
11:53 am 11:53 Sunny 60 15.6 29 -1.7 31 31 WSW 20 31 29.79 1009 10 16.0934 0 0
12:53 pm 12:53 Partly Cloudy 59 15 27 -2.8 29 29 W 21 33 29.77 1008 10 16.0934 0 0
1:53 pm 13:53 Partly Cloudy 62 16.7 26 -3.3 25 25 W 23 37 29.76 1008 10 16.0934 0 0
2:53 pm 14:53 Mostly Cloudy 62 16.7 25 -3.9 24 24 W 17 28 29.77 1008 10 16.0934 0 0
3:53 pm 15:53 Mostly Sunny 64 17.8 26 -3.3 24 24 WSW 14 22 29.75 1007 10 16.0934 0 0
4:53 pm 16:53 Mostly Sunny 63 17.2 23 -5 22 22 W 20 31 29.74 1007 10 16.0934 0 0
5:53 pm 17:53 Partly Cloudy 63 17.2 26 -3.3 25 25 W 14 22 29.74 1007 10 16.0934 0 0
6:53 pm 18:53 Mostly Cloudy 62 16.7 26 -3.3 25 25 W 18 30 29.74 1007 10 16.0934 0 0
7:53 pm 19:53 Sunny 60 15.6 25 -3.9 26 26 WSW 12 19 29.74 1007 10 16.0934 0 0
8:53 pm 20:53 Mostly Clear 58 14.4 30 -1.1 35 35 SW 8 13 29.74 1007 10 16.0934 0 0
9:53 pm 21:53 Clear 56 13.3 33 0.6 42 42 SW 5 7 29.74 1007 10 16.0934 0 0
10:53 pm 22:53 Mostly Clear 54 12.2 34 1.1 47 47 SW 5 7 29.74 1007 10 16.0934 0 0
11:53 pm 23:53 Mostly Cloudy 55 12.8 35 1.7 47 47 SW 5 7 29.72 1007 10 16.0934 0 0

Powered by AerisWeather